createdAt,value
2023-03-25T00:00:16.949Z,49.46
2023-03-25T00:02:49.531Z,47.07
2023-03-25T00:05:19.096Z,46.21
2023-03-25T00:07:48.384Z,46.73
2023-03-25T00:10:15.630Z,46.52
2023-03-25T00:12:45.542Z,47.04
2023-03-25T00:15:13.171Z,46.14
2023-03-25T00:22:01.840Z,45.78
2023-03-25T00:24:28.895Z,46.34
2023-03-25T00:26:55.747Z,48.71
2023-03-25T00:29:22.614Z,50.07
2023-03-25T00:31:49.521Z,51.11
2023-03-25T00:34:16.405Z,50.45
2023-03-25T00:36:43.926Z,49.72
2023-03-25T00:42:44.799Z,56.96
2023-03-25T00:45:12.772Z,56.41
2023-03-25T00:47:39.690Z,57.38
2023-03-25T00:50:07.019Z,57.71
2023-03-25T00:52:33.924Z,58.88
2023-03-25T00:55:02.181Z,61.63
2023-03-25T00:57:29.175Z,62.24
2023-03-25T00:59:56.092Z,63.91
2023-03-25T01:02:24.139Z,66.97
2023-03-25T01:04:51.246Z,69.19
2023-03-25T01:07:20.501Z,66.58
2023-03-25T01:09:47.902Z,68.22
2023-03-25T01:12:15.692Z,71.27
2023-03-25T01:14:43.340Z,71.87
2023-03-25T01:17:10.470Z,75.60
2023-03-25T01:23:18.148Z,75.48
2023-03-25T01:25:45.040Z,82.77
2023-03-25T01:31:59.463Z,88.73
2023-03-25T01:34:26.423Z,90.57
2023-03-25T01:36:55.736Z,95.57
2023-03-25T01:42:51.815Z,94.43
2023-03-25T01:45:30.917Z,92.30
2023-03-25T01:52:03.376Z,89.91
2023-03-25T01:54:30.978Z,92.62
2023-03-25T01:56:58.290Z,96.42
2023-03-25T01:59:27.317Z,91.38
2023-03-25T02:01:55.889Z,90.86
2023-03-25T02:04:59.212Z,91.43
2023-03-25T02:11:55.036Z,89.08
2023-03-25T02:14:25.300Z,86.40
2023-03-25T02:17:10.827Z,81.71
2023-03-25T02:20:09.413Z,80.05
2023-03-25T02:22:50.280Z,77.46
2023-03-25T02:25:35.714Z,77.46
2023-03-25T02:28:05.440Z,75.71
2023-03-25T02:31:10.722Z,76.25
2023-03-25T02:33:57.699Z,72.83
2023-03-25T02:36:30.432Z,70.09
2023-03-25T02:39:14.183Z,66.49
2023-03-25T02:41:48.945Z,65.19
2023-03-25T02:44:44.166Z,66.99
2023-03-25T02:47:16.040Z,64.93
2023-03-25T02:49:53.602Z,64.67
2023-03-25T02:52:21.364Z,62.63
2023-03-25T02:54:49.457Z,61.67
2023-03-25T02:57:19.513Z,64.95
2023-03-25T02:59:47.703Z,71.33
2023-03-25T03:02:16.037Z,73.21
2023-03-25T03:04:54.306Z,72.22
2023-03-25T03:07:33.851Z,73.50
2023-03-25T03:10:21.159Z,72.81
2023-03-25T03:13:25.774Z,69.95
2023-03-25T03:16:13.450Z,67.48
2023-03-25T03:18:58.751Z,73.53
2023-03-25T03:21:38.306Z,74.30
2023-03-25T03:24:22.821Z,74.98
2023-03-25T03:27:12.208Z,74.10
2023-03-25T03:29:45.932Z,75.26
2023-03-25T03:32:57.914Z,76.11
2023-03-25T03:35:38.564Z,76.05
2023-03-25T03:42:01.908Z,76.95
2023-03-25T03:44:34.706Z,78.19
2023-03-25T03:47:11.072Z,81.86
2023-03-25T03:49:44.911Z,80.75
2023-03-25T03:52:22.529Z,81.82
2023-03-25T03:54:56.224Z,82.87
2023-03-25T03:57:42.439Z,84.10
2023-03-25T04:00:16.176Z,81.25
2023-03-25T04:03:30.496Z,84.03
2023-03-25T04:06:22.027Z,86.35
2023-03-25T04:12:35.691Z,87.99
2023-03-25T04:15:03.863Z,88.67
2023-03-25T04:17:33.211Z,86.48
2023-03-25T04:20:01.805Z,85.73
2023-03-25T04:22:28.654Z,82.84
2023-03-25T04:24:56.377Z,81.01
2023-03-25T04:27:23.313Z,84.23
2023-03-25T04:29:52.130Z,85.04
2023-03-25T04:32:19.184Z,84.99
2023-03-25T04:34:47.143Z,85.53
2023-03-25T04:37:14.454Z,87.58
2023-03-25T04:39:41.841Z,86.17
2023-03-25T04:42:14.015Z,84.62
2023-03-25T04:44:40.958Z,84.09
2023-03-25T04:47:12.081Z,84.32
2023-03-25T04:49:38.978Z,82.54
2023-03-25T04:52:06.609Z,83.79
2023-03-25T04:54:33.484Z,85.38
2023-03-25T04:57:00.596Z,85.89
2023-03-25T04:59:27.476Z,83.78
2023-03-25T05:01:54.443Z,84.98
2023-03-25T05:04:21.791Z,85.01
2023-03-25T05:06:51.439Z,85.01
2023-03-25T05:09:22.286Z,84.29
2023-03-25T05:11:50.150Z,83.86
2023-03-25T05:14:19.043Z,82.61
2023-03-25T05:16:47.239Z,81.86
2023-03-25T05:22:43.400Z,83.91
2023-03-25T05:25:10.702Z,86.54
2023-03-25T05:27:38.281Z,84.99
2023-03-25T05:30:07.246Z,84.67
2023-03-25T05:32:34.310Z,85.25
2023-03-25T05:35:02.340Z,87.45
2023-03-25T05:37:29.273Z,86.41
2023-03-25T05:39:56.572Z,86.84
2023-03-25T05:42:23.975Z,85.46
2023-03-25T05:44:52.546Z,86.58
2023-03-25T05:47:24.609Z,86.90
2023-03-25T05:49:52.932Z,90.75
2023-03-25T05:52:20.609Z,92.01
2023-03-25T05:54:51.928Z,92.66
2023-03-25T05:57:19.138Z,91.32
2023-03-25T05:59:46.036Z,93.36
2023-03-25T06:02:15.046Z,91.83
2023-03-25T06:04:42.938Z,91.79
2023-03-25T06:07:14.505Z,91.16
2023-03-25T06:09:46.341Z,90.82
2023-03-25T06:12:17.886Z,91.12
2023-03-25T06:14:45.953Z,92.00
2023-03-25T06:17:14.158Z,92.46
2023-03-25T06:19:41.374Z,92.91
2023-03-25T06:22:12.337Z,88.76
2023-03-25T06:24:40.443Z,89.30
2023-03-25T06:27:12.373Z,87.38
2023-03-25T06:33:42.183Z,88.11
2023-03-25T06:36:11.614Z,88.89
2023-03-25T06:38:39.808Z,87.67
2023-03-25T06:41:07.448Z,86.75
2023-03-25T06:43:34.953Z,87.82
2023-03-25T06:46:01.849Z,83.99
2023-03-25T06:51:51.707Z,82.94
2023-03-25T06:54:18.830Z,81.98
2023-03-25T06:56:45.740Z,79.65
2023-03-25T06:59:12.637Z,79.67
2023-03-25T07:01:39.912Z,81.48
2023-03-25T07:04:06.868Z,81.41
2023-03-25T07:06:33.822Z,80.76
2023-03-25T07:09:00.729Z,81.87
2023-03-25T07:11:29.872Z,82.13
2023-03-25T07:13:57.030Z,82.84
2023-03-25T07:16:24.150Z,83.22
2023-03-25T07:22:31.642Z,82.60
2023-03-25T07:24:58.844Z,80.52
2023-03-25T07:27:26.598Z,81.63
2023-03-25T07:29:53.417Z,80.13
2023-03-25T07:32:20.415Z,78.54
2023-03-25T07:34:47.368Z,77.96
2023-03-25T07:37:14.273Z,77.58
2023-03-25T07:43:22.232Z,73.89
2023-03-25T07:45:49.192Z,73.16
2023-03-25T07:48:16.830Z,73.77
2023-03-25T07:50:44.262Z,72.94
2023-03-25T07:53:11.330Z,73.20
2023-03-25T07:55:38.374Z,69.95
2023-03-25T07:58:05.402Z,70.94
2023-03-25T08:00:32.257Z,68.89
2023-03-25T08:02:59.237Z,68.41
2023-03-25T08:05:26.195Z,70.23
2023-03-25T08:11:59.339Z,67.98
2023-03-25T08:14:26.216Z,67.30
2023-03-25T08:16:53.324Z,66.68
2023-03-25T08:19:20.481Z,68.47
2023-03-25T08:21:47.387Z,67.82
2023-03-25T08:24:14.257Z,68.09
2023-03-25T08:26:41.173Z,68.46
2023-03-25T08:32:54.708Z,67.20
2023-03-25T08:35:23.977Z,67.86
2023-03-25T08:37:51.427Z,67.13
2023-03-25T08:40:18.775Z,67.24
2023-03-25T08:42:46.863Z,68.30
2023-03-25T08:45:15.500Z,70.49
2023-03-25T08:47:43.684Z,68.12
2023-03-25T08:50:10.896Z,66.96
2023-03-25T08:52:37.931Z,66.27
2023-03-25T08:55:09.212Z,66.73
2023-03-25T09:03:46.884Z,61.96
2023-03-25T09:06:13.830Z,55.89
2023-03-25T09:08:41.003Z,55.67
2023-03-25T09:11:08.171Z,57.98
2023-03-25T09:13:35.043Z,56.96
2023-03-25T09:16:01.952Z,59.56
2023-03-25T09:22:09.611Z,62.41
2023-03-25T09:24:36.502Z,59.39
2023-03-25T09:27:03.755Z,59.49
2023-03-25T09:29:30.936Z,61.29
2023-03-25T09:31:58.557Z,59.28
2023-03-25T09:34:26.040Z,57.76
2023-03-25T09:36:54.400Z,57.83
2023-03-25T09:42:59.046Z,59.68
2023-03-25T09:45:37.284Z,59.06
2023-03-25T09:51:57.811Z,54.22
2023-03-25T09:54:32.492Z,50.92
2023-03-25T09:57:06.542Z,54.32
2023-03-25T10:03:21.255Z,54.52
2023-03-25T10:06:00.138Z,58.26
2023-03-25T10:12:31.017Z,57.75
2023-03-25T10:15:19.214Z,58.82
2023-03-25T10:22:05.538Z,64.29
2023-03-25T10:24:40.346Z,63.86
2023-03-25T10:27:33.673Z,64.03
2023-03-25T10:30:28.112Z,64.31
2023-03-25T10:32:59.875Z,65.95
2023-03-25T10:35:31.943Z,65.79
2023-03-25T10:38:06.580Z,66.70
2023-03-25T10:40:50.447Z,67.74
2023-03-25T10:43:35.451Z,66.46
2023-03-25T10:46:13.193Z,67.90
2023-03-25T10:52:21.106Z,69.49
2023-03-25T10:54:52.306Z,70.55
2023-03-25T10:57:22.630Z,69.32
2023-03-25T11:00:01.506Z,68.72
2023-03-25T11:02:30.643Z,69.67
2023-03-25T11:05:00.843Z,69.22
2023-03-25T11:07:33.995Z,67.56
2023-03-25T11:10:17.650Z,68.50
2023-03-25T11:12:48.486Z,67.70
2023-03-25T11:15:24.701Z,66.30
2023-03-25T11:22:17.283Z,65.64
2023-03-25T11:24:47.872Z,63.91
2023-03-25T11:27:23.208Z,62.16
2023-03-25T11:29:55.883Z,63.61
2023-03-25T11:32:39.526Z,64.94
2023-03-25T11:35:15.422Z,65.12
2023-03-25T11:42:00.599Z,62.56
2023-03-25T11:44:32.163Z,58.77
2023-03-25T11:47:03.356Z,58.15
2023-03-25T11:49:35.428Z,57.99
2023-03-25T11:52:14.795Z,59.07
2023-03-25T11:54:42.517Z,61.03
2023-03-25T11:57:24.589Z,48.87
2023-03-25T12:00:01.968Z,47.24
2023-03-25T12:02:37.571Z,47.66
2023-03-25T12:05:15.031Z,46.92
2023-03-25T12:12:01.581Z,45.05
2023-03-25T12:14:49.975Z,61.79
2023-03-25T12:17:16.885Z,52.67
2023-03-25T12:23:40.799Z,56.06
2023-03-25T12:26:14.136Z,58.03
2023-03-25T12:32:24.434Z,55.32
2023-03-25T12:34:57.111Z,54.17
2023-03-25T12:37:39.581Z,51.07
2023-03-25T12:40:34.419Z,44.59
2023-03-25T12:43:12.000Z,40.20
2023-03-25T12:45:44.527Z,42.12
2023-03-25T12:52:08.270Z,44.00
2023-03-25T12:54:54.412Z,46.03
2023-03-25T12:57:27.353Z,52.74
2023-03-25T13:00:09.416Z,56.16
2023-03-25T13:03:27.526Z,52.61
2023-03-25T13:06:22.315Z,46.55
2023-03-25T13:12:42.333Z,44.94
2023-03-25T13:15:26.755Z,46.89
2023-03-25T13:18:01.973Z,47.32
2023-03-25T13:20:31.635Z,46.64
2023-03-25T13:23:02.365Z,44.07
2023-03-25T13:25:39.820Z,44.79
2023-03-25T13:28:11.982Z,44.49
2023-03-25T13:30:41.823Z,44.04
2023-03-25T13:33:16.819Z,47.58
2023-03-25T13:35:52.651Z,47.34
2023-03-25T13:42:08.115Z,49.34
2023-03-25T13:44:38.262Z,48.43
2023-03-25T13:47:30.888Z,47.86
2023-03-25T13:50:03.103Z,48.79
2023-03-25T13:52:40.192Z,45.51
2023-03-25T13:55:17.143Z,44.33
2023-03-25T14:04:27.558Z,44.22
2023-03-25T14:07:21.349Z,43.10
2023-03-25T14:10:12.677Z,43.63
2023-03-25T14:12:44.156Z,44.81
2023-03-25T14:15:23.266Z,44.40
2023-03-25T14:17:52.913Z,44.61
2023-03-25T14:20:25.474Z,44.08
2023-03-25T14:23:02.069Z,42.35
2023-03-25T14:25:40.813Z,43.11
2023-03-25T14:28:09.692Z,41.77
2023-03-25T14:30:37.109Z,41.36
2023-03-25T14:33:04.236Z,41.77
2023-03-25T14:35:34.217Z,42.58
2023-03-25T14:38:22.024Z,42.99
2023-03-25T14:41:02.677Z,42.49
2023-03-25T14:43:38.325Z,43.38
2023-03-25T14:46:11.545Z,43.55
2023-03-25T14:52:15.946Z,44.73
2023-03-25T14:54:43.905Z,46.37
2023-03-25T14:57:16.118Z,47.06
2023-03-25T14:59:59.631Z,47.57
2023-03-25T15:02:31.978Z,46.44
2023-03-25T15:05:02.432Z,46.84
2023-03-25T15:11:50.912Z,48.37
2023-03-25T15:14:22.812Z,46.82
2023-03-25T15:16:49.992Z,46.78
2023-03-25T15:19:20.391Z,47.51
2023-03-25T15:22:01.165Z,47.37
2023-03-25T15:24:38.038Z,47.45
2023-03-25T15:27:08.942Z,47.06
2023-03-25T15:33:49.662Z,47.14
2023-03-25T15:36:33.332Z,46.61
2023-03-25T15:39:22.345Z,46.95
2023-03-25T15:42:18.014Z,47.34
2023-03-25T15:44:53.388Z,49.76
2023-03-25T15:47:39.765Z,49.35
2023-03-25T15:50:34.535Z,48.29
2023-03-25T15:53:13.713Z,48.80
2023-03-25T15:55:44.381Z,48.70
2023-03-25T16:02:00.910Z,47.26
2023-03-25T16:04:48.314Z,47.33
2023-03-25T16:07:18.032Z,47.90
2023-03-25T16:09:47.257Z,48.24
2023-03-25T16:12:20.691Z,47.57
2023-03-25T16:14:48.380Z,47.46
2023-03-25T16:17:18.015Z,47.49
2023-03-25T16:23:21.720Z,47.38
2023-03-25T16:25:50.282Z,48.65
2023-03-25T16:28:22.303Z,48.85
2023-03-25T16:30:53.422Z,49.64
2023-03-25T16:33:26.995Z,49.06
2023-03-25T16:35:59.693Z,49.85
2023-03-25T16:38:26.816Z,50.26
2023-03-25T16:41:01.596Z,50.91
2023-03-25T16:43:29.894Z,51.28
2023-03-25T16:46:02.689Z,52.39
2023-03-25T16:48:36.761Z,52.44
2023-03-25T16:51:32.262Z,52.85
2023-03-25T16:54:01.885Z,53.49
2023-03-25T16:56:32.026Z,52.18
2023-03-25T16:59:11.962Z,52.85
2023-03-25T17:01:42.839Z,51.99
2023-03-25T17:04:17.257Z,52.92
2023-03-25T17:06:46.621Z,52.07
2023-03-25T17:09:19.244Z,54.24
2023-03-25T17:11:47.120Z,52.85
2023-03-25T17:14:19.588Z,52.81
2023-03-25T17:16:48.532Z,52.37
2023-03-25T17:19:16.135Z,53.91
2023-03-25T17:22:02.314Z,54.37
2023-03-25T17:24:37.944Z,54.12
2023-03-25T17:27:13.784Z,53.05
2023-03-25T17:33:35.914Z,52.18
2023-03-25T17:36:04.062Z,50.59
2023-03-25T17:38:47.888Z,49.88
2023-03-25T17:41:16.241Z,51.47
2023-03-25T17:43:48.600Z,51.98
2023-03-25T17:46:21.969Z,52.50
2023-03-25T17:53:16.858Z,57.00
2023-03-25T17:55:43.959Z,58.80
2023-03-25T17:58:10.914Z,61.26
2023-03-25T18:00:38.264Z,60.47
2023-03-25T18:03:13.299Z,59.27
2023-03-25T18:05:40.456Z,56.66
2023-03-25T18:08:07.415Z,57.62
2023-03-25T18:10:35.526Z,55.67
2023-03-25T18:13:02.427Z,55.58
2023-03-25T18:15:30.236Z,53.90
2023-03-25T18:22:13.877Z,54.82
2023-03-25T18:24:46.465Z,52.95
2023-03-25T18:27:14.434Z,51.79
2023-03-25T18:29:41.597Z,50.48
2023-03-25T18:32:08.638Z,51.13
2023-03-25T18:34:35.952Z,51.64
2023-03-25T18:37:02.924Z,53.22
2023-03-25T18:43:10.450Z,56.14
2023-03-25T18:45:37.686Z,56.76
2023-03-25T18:48:04.994Z,57.66
2023-03-25T18:50:37.745Z,57.38
2023-03-25T18:53:06.085Z,59.25
2023-03-25T18:55:34.872Z,58.08
2023-03-25T18:58:01.750Z,60.30
2023-03-25T19:00:37.217Z,59.38
2023-03-25T19:03:04.411Z,58.05
2023-03-25T19:05:31.925Z,59.19
2023-03-25T19:11:54.044Z,57.25
2023-03-25T19:14:21.196Z,56.00
2023-03-25T19:17:01.048Z,55.61
2023-03-25T19:19:30.510Z,55.78
2023-03-25T19:21:57.372Z,53.99
2023-03-25T19:24:24.245Z,55.87
2023-03-25T19:26:51.640Z,55.54
2023-03-25T19:29:18.545Z,58.24
2023-03-25T19:31:45.451Z,61.78
2023-03-25T19:34:12.319Z,66.02
2023-03-25T19:36:39.228Z,67.70
2023-03-25T19:39:06.184Z,68.67
2023-03-25T19:41:34.970Z,68.98
2023-03-25T19:44:01.989Z,68.72
2023-03-25T19:46:30.551Z,69.37
2023-03-25T19:52:38.402Z,71.07
2023-03-25T19:55:06.161Z,75.22
2023-03-25T19:57:33.272Z,72.27
2023-03-25T20:00:01.607Z,73.44
2023-03-25T20:02:28.667Z,72.33
2023-03-25T20:04:55.569Z,70.46
2023-03-25T20:07:22.530Z,72.04
2023-03-25T20:09:49.449Z,72.31
2023-03-25T20:12:16.365Z,75.03
2023-03-25T20:14:43.248Z,77.57
2023-03-25T20:17:10.131Z,81.88
2023-03-25T20:19:37.552Z,87.96
2023-03-25T20:22:12.227Z,89.00
2023-03-25T20:24:49.113Z,89.43
2023-03-25T20:27:16.078Z,87.58
2023-03-25T20:33:24.363Z,87.90
2023-03-25T20:35:51.456Z,86.36
2023-03-25T20:41:55.173Z,83.85
2023-03-25T20:44:22.407Z,81.63
2023-03-25T20:46:49.949Z,77.53
2023-03-25T20:52:57.495Z,76.19
2023-03-25T20:55:24.393Z,68.28
2023-03-25T20:57:52.045Z,67.24
2023-03-25T21:00:19.696Z,66.78
2023-03-25T21:02:47.938Z,63.95
2023-03-25T21:05:14.935Z,63.58
2023-03-25T21:07:41.822Z,63.37
2023-03-25T21:10:09.228Z,63.59
2023-03-25T21:12:43.825Z,62.88
2023-03-25T21:15:12.266Z,62.74
2023-03-25T21:17:39.157Z,61.24
2023-03-25T21:20:07.535Z,64.61
2023-03-25T21:22:34.863Z,61.02
2023-03-25T21:25:01.909Z,59.90
2023-03-25T21:27:39.615Z,60.22
2023-03-25T21:30:09.766Z,61.57
2023-03-25T21:32:39.783Z,62.17
2023-03-25T21:35:08.089Z,64.01
2023-03-25T21:37:38.082Z,67.20
2023-03-25T21:40:08.456Z,68.66
2023-03-25T21:42:38.544Z,69.62
2023-03-25T21:45:07.893Z,69.01
2023-03-25T21:51:57.246Z,69.00
2023-03-25T21:54:24.863Z,72.40
2023-03-25T21:56:54.910Z,73.09
2023-03-25T21:59:22.939Z,75.88
2023-03-25T22:01:52.847Z,74.38
2023-03-25T22:04:19.912Z,71.55
2023-03-25T22:06:46.908Z,72.01
2023-03-25T22:12:54.586Z,71.09
2023-03-25T22:15:21.320Z,73.17
2023-03-25T22:21:53.808Z,70.01
2023-03-25T22:24:20.649Z,68.78
2023-03-25T22:26:47.353Z,68.77
2023-03-25T22:29:14.256Z,71.48
2023-03-25T22:31:42.200Z,69.60
2023-03-25T22:34:12.379Z,71.03
2023-03-25T22:36:42.669Z,70.29
2023-03-25T22:39:10.630Z,69.58
2023-03-25T22:41:37.582Z,67.65
2023-03-25T22:44:04.681Z,66.05
2023-03-25T22:46:32.391Z,66.66
2023-03-25T22:52:40.756Z,67.40
2023-03-25T22:55:08.564Z,68.36
2023-03-25T23:03:43.571Z,70.09
2023-03-25T23:06:11.031Z,69.25
2023-03-25T23:08:39.243Z,68.57
2023-03-25T23:11:09.247Z,66.75
2023-03-25T23:13:36.638Z,66.59
2023-03-25T23:16:06.743Z,66.57
2023-03-25T23:22:51.987Z,66.48
2023-03-25T23:25:18.831Z,65.91
2023-03-25T23:34:02.991Z,63.82
2023-03-25T23:36:31.156Z,66.25
2023-03-25T23:38:59.146Z,67.63
2023-03-25T23:41:26.616Z,68.61
2023-03-25T23:43:54.549Z,69.17
2023-03-25T23:46:22.392Z,67.08
2023-03-25T23:52:29.893Z,67.30
2023-03-25T23:54:56.856Z,67.53
2023-03-25T23:57:23.765Z,65.68
2023-03-25T23:59:50.821Z,63.27
